createdAt,value
2019-02-07T00:13:38.726Z,-6.10
2019-02-07T00:21:03.520Z,-6.30
2019-02-07T00:26:01.167Z,-6.30
2019-02-07T00:28:29.558Z,-6.30
2019-02-07T00:30:58.019Z,-6.40
2019-02-07T00:33:26.647Z,-6.50
2019-02-07T00:38:23.570Z,-6.40
2019-02-07T00:50:45.347Z,-6.40
2019-02-07T00:53:13.746Z,-6.50
2019-02-07T00:55:42.207Z,-6.50
2019-02-07T00:58:10.610Z,-6.50
2019-02-07T01:03:07.215Z,-6.50
2019-02-07T01:08:04.107Z,-6.40
2019-02-07T01:20:25.665Z,-6.60
2019-02-07T01:22:54.363Z,-6.50
2019-02-07T01:25:23.928Z,-6.50
2019-02-07T01:27:53.600Z,-6.40
2019-02-07T01:30:27.047Z,-6.60
2019-02-07T01:32:55.491Z,-6.70
2019-02-07T01:35:23.891Z,-6.80
2019-02-07T01:42:49.546Z,-6.60
2019-02-07T01:45:23.176Z,-6.60
2019-02-07T01:47:51.678Z,-6.70
2019-02-07T01:50:24.755Z,-6.70
2019-02-07T01:52:53.419Z,-6.80
2019-02-07T01:55:21.920Z,-6.90
2019-02-07T01:57:50.384Z,-6.90
2019-02-07T02:02:47.308Z,-6.60
2019-02-07T02:05:18.204Z,-6.60
2019-02-07T02:10:27.943Z,-6.80
2019-02-07T02:27:48.263Z,-7.00
2019-02-07T02:30:29.129Z,-6.90
2019-02-07T02:35:25.670Z,-6.80
2019-02-07T02:45:21.439Z,-6.90
2019-02-07T02:47:49.831Z,-7.00
2019-02-07T02:50:19.874Z,-7.10
2019-02-07T02:52:48.623Z,-7.00
2019-02-07T03:03:02.062Z,-6.80
2019-02-07T03:05:34.885Z,-6.80
2019-02-07T03:08:10.707Z,-6.90
2019-02-07T03:10:56.963Z,-7.00
2019-02-07T03:16:05.769Z,-6.90
2019-02-07T03:18:38.920Z,-6.90
2019-02-07T03:21:20.989Z,-6.90
2019-02-07T03:23:54.064Z,-6.80
2019-02-07T03:29:08.988Z,-7.00
2019-02-07T03:31:46.217Z,-7.00
2019-02-07T03:34:16.251Z,-7.00
2019-02-07T03:36:46.378Z,-7.00
2019-02-07T03:39:19.198Z,-7.00
2019-02-07T03:41:49.262Z,-7.00
2019-02-07T03:44:19.600Z,-7.00
2019-02-07T03:46:58.794Z,-6.90
2019-02-07T03:49:45.321Z,-7.00
2019-02-07T03:52:15.921Z,-7.10
2019-02-07T03:54:48.903Z,-7.00
2019-02-07T03:57:18.936Z,-7.00
2019-02-07T03:59:54.701Z,-7.10
2019-02-07T04:02:40.673Z,-7.00
2019-02-07T04:05:17.519Z,-7.10
2019-02-07T04:07:56.471Z,-7.00
2019-02-07T04:10:26.539Z,-7.20
2019-02-07T04:12:56.891Z,-7.30
2019-02-07T04:15:29.667Z,-7.20
2019-02-07T04:17:59.747Z,-7.10
2019-02-07T04:20:46.129Z,-7.10
2019-02-07T04:57:34.652Z,-7.00
2019-02-07T05:00:21.022Z,-7.20
2019-02-07T05:02:51.040Z,-7.20
2019-02-07T05:08:02.560Z,-7.40
2019-02-07T05:10:32.706Z,-7.40
2019-02-07T05:31:58.923Z,-7.20
2019-02-07T05:34:30.435Z,-7.20
2019-02-07T05:37:00.458Z,-7.40
2019-02-07T05:39:46.695Z,-7.40
2019-02-07T05:42:16.727Z,-7.40
2019-02-07T05:45:05.632Z,-7.40
2019-02-07T05:47:51.852Z,-7.40
2019-02-07T05:50:38.084Z,-7.30
2019-02-07T05:53:23.345Z,-7.40
2019-02-07T05:55:53.411Z,-7.30
2019-02-07T05:58:32.582Z,-7.30
2019-02-07T06:01:05.381Z,-7.30
2019-02-07T06:03:35.483Z,-7.30
2019-02-07T06:06:11.371Z,-7.30
2019-02-07T06:08:59.867Z,-7.30
2019-02-07T06:11:38.866Z,-7.40
2019-02-07T06:14:26.993Z,-7.40
2019-02-07T06:17:02.746Z,-7.40
2019-02-07T06:19:29.180Z,-7.30
2019-02-07T06:21:59.239Z,-7.40
2019-02-07T06:24:41.283Z,-7.30
2019-02-07T06:27:14.201Z,-7.30
2019-02-07T06:29:44.242Z,-7.20
2019-02-07T06:32:14.373Z,-7.20
2019-02-07T06:34:47.427Z,-7.20
2019-02-07T06:37:18.467Z,-7.10
2019-02-07T06:39:51.214Z,-7.10
2019-02-07T06:42:23.982Z,-7.10
2019-02-07T06:44:59.825Z,-7.00
2019-02-07T06:47:29.887Z,-7.10
2019-02-07T06:49:59.919Z,-7.00
2019-02-07T06:52:39.020Z,-7.00
2019-02-07T06:55:19.411Z,-7.10
2019-02-07T06:57:55.559Z,-7.10
2019-02-07T07:00:28.141Z,-7.00
2019-02-07T07:03:13.231Z,-6.80
2019-02-07T07:05:46.000Z,-6.60
2019-02-07T07:08:16.239Z,-6.50
2019-02-07T07:10:58.355Z,-6.40
2019-02-07T07:13:34.398Z,-6.20
2019-02-07T07:16:07.341Z,-6.40
2019-02-07T07:18:42.892Z,-6.00
2019-02-07T07:21:29.533Z,-5.90
2019-02-07T07:34:32.344Z,-5.60
2019-02-07T07:37:14.143Z,-5.50
2019-02-07T07:39:45.243Z,-5.50
2019-02-07T07:42:31.772Z,-5.30
2019-02-07T07:45:07.947Z,-5.10
2019-02-07T07:47:43.852Z,-4.90
2019-02-07T07:50:31.199Z,-4.80
2019-02-07T07:53:14.650Z,-4.60
2019-02-07T07:55:44.727Z,-4.50
2019-02-07T07:58:32.950Z,-4.30
2019-02-07T08:01:05.917Z,-4.00
2019-02-07T08:03:36.991Z,-3.70
2019-02-07T08:06:10.152Z,-3.50
2019-02-07T08:08:40.242Z,-3.40
2019-02-07T08:11:26.722Z,-3.30
2019-02-07T08:14:05.700Z,-3.10
2019-02-07T08:16:38.771Z,-2.90
2019-02-07T08:19:11.812Z,-2.60
2019-02-07T08:21:41.902Z,-2.40
2019-02-07T08:32:17.909Z,-1.70
2019-02-07T08:34:56.736Z,-1.60
2019-02-07T08:37:33.110Z,-1.50
2019-02-07T08:40:16.028Z,-1.40
2019-02-07T08:43:01.995Z,-1.00
2019-02-07T08:45:44.127Z,-0.60
2019-02-07T08:48:14.210Z,-0.40
2019-02-07T08:50:44.637Z,0.50
2019-02-07T08:53:26.647Z,0.90
2019-02-07T08:56:02.520Z,0.90
2019-02-07T08:58:48.915Z,0.90
2019-02-07T09:01:22.107Z,1.00
2019-02-07T09:04:08.251Z,1.50
2019-02-07T09:06:54.426Z,1.20
2019-02-07T09:09:27.376Z,1.10
2019-02-07T09:11:57.558Z,1.30
2019-02-07T09:14:44.387Z,1.30
2019-02-07T09:17:30.742Z,1.50
2019-02-07T09:20:15.983Z,2.00
2019-02-07T09:23:02.437Z,2.40
2019-02-07T09:25:48.139Z,3.10
2019-02-07T09:31:03.545Z,3.70
2019-02-07T09:33:39.687Z,4.00
2019-02-07T09:36:10.217Z,4.10
2019-02-07T09:38:42.977Z,4.30
2019-02-07T09:41:14.447Z,4.60
2019-02-07T09:43:56.714Z,5.70
2019-02-07T09:46:42.935Z,5.70
2019-02-07T09:49:19.641Z,5.20
2019-02-07T09:52:02.406Z,5.90
2019-02-07T09:54:47.782Z,5.40
2019-02-07T09:57:28.568Z,5.00
2019-02-07T10:00:07.505Z,5.60
2019-02-07T10:02:41.230Z,6.40
2019-02-07T10:05:18.864Z,6.20
2019-02-07T10:07:51.776Z,6.50
2019-02-07T10:10:22.038Z,6.60
2019-02-07T10:12:55.079Z,6.60
2019-02-07T10:15:43.731Z,6.70
2019-02-07T10:18:32.724Z,7.00
2019-02-07T10:21:00.188Z,6.80
2019-02-07T10:23:39.723Z,7.30
2019-02-07T10:26:26.223Z,7.10
2019-02-07T10:29:10.041Z,6.90
2019-02-07T10:31:43.865Z,8.50
2019-02-07T10:34:20.394Z,8.10
2019-02-07T10:36:59.276Z,8.90
2019-02-07T10:39:35.233Z,8.70
2019-02-07T10:42:15.646Z,8.60
2019-02-07T10:44:48.548Z,8.20
2019-02-07T10:47:30.388Z,9.00
2019-02-07T10:49:59.686Z,9.20
2019-02-07T10:52:42.528Z,9.60
2019-02-07T10:55:19.040Z,9.50
2019-02-07T10:57:50.587Z,9.00
2019-02-07T11:00:22.375Z,9.20
2019-02-07T11:03:12.675Z,9.90
2019-02-07T11:05:45.546Z,9.50
2019-02-07T11:08:22.265Z,9.60
2019-02-07T11:11:08.785Z,10.10
2019-02-07T11:13:44.852Z,11.50
2019-02-07T11:16:26.840Z,10.70
2019-02-07T11:19:20.708Z,10.20
2019-02-07T11:21:43.058Z,8.90
2019-02-07T11:24:19.300Z,9.50
2019-02-07T11:26:50.968Z,10.40
2019-02-07T11:29:23.969Z,10.60
2019-02-07T11:32:00.222Z,9.80
2019-02-07T11:34:46.077Z,10.70
2019-02-07T11:37:28.821Z,11.20
2019-02-07T11:40:04.589Z,11.30
2019-02-07T11:42:51.160Z,10.90
2019-02-07T11:45:29.760Z,10.80
2019-02-07T11:48:02.898Z,11.10
2019-02-07T11:50:51.472Z,11.60
2019-02-07T11:53:21.847Z,11.50
2019-02-07T11:56:01.438Z,12.30
2019-02-07T11:58:37.596Z,11.70
2019-02-07T12:01:17.711Z,11.40
2019-02-07T12:03:56.859Z,11.60
2019-02-07T13:52:00.023Z,8.50
2019-02-07T13:54:42.304Z,8.40
2019-02-07T13:57:15.856Z,8.60
2019-02-07T13:59:55.418Z,8.20
2019-02-07T14:02:29.620Z,7.90
2019-02-07T14:05:15.719Z,7.70
2019-02-07T14:07:50.539Z,7.70
2019-02-07T18:32:47.485Z,-1.80
2019-02-07T18:40:19.265Z,1.40
2019-02-07T18:42:47.728Z,1.60
2019-02-07T18:45:18.108Z,1.60
2019-02-07T18:50:21.158Z,1.90
2019-02-07T18:52:49.743Z,2.00
2019-02-07T18:55:18.612Z,1.90
2019-02-07T19:00:22.224Z,1.60
2019-02-07T19:02:51.416Z,1.80
2019-02-07T19:07:49.309Z,1.80
2019-02-07T19:12:50.093Z,1.80
2019-02-07T19:15:34.358Z,1.60
2019-02-07T19:18:02.972Z,1.50
2019-02-07T19:20:31.400Z,1.80
2019-02-07T19:23:00.138Z,1.80
2019-02-07T19:25:28.687Z,2.00
2019-02-07T19:27:58.103Z,2.10
2019-02-07T19:30:31.855Z,2.10
2019-02-07T19:33:00.817Z,1.90
2019-02-07T19:35:29.450Z,2.00
2019-02-07T19:37:58.389Z,1.50
2019-02-07T19:40:27.007Z,1.10
2019-02-07T19:42:56.119Z,0.90
2019-02-07T19:45:28.639Z,1.20
2019-02-07T19:47:58.863Z,1.10
2019-02-07T19:50:28.231Z,0.40
2019-02-07T19:52:57.290Z,0.10
2019-02-07T19:55:32.863Z,0.10
2019-02-07T19:58:02.019Z,0.00
2019-02-07T20:00:39.341Z,-0.30
2019-02-07T20:03:08.779Z,0.10
2019-02-07T20:05:39.107Z,0.20
2019-02-07T20:08:08.183Z,0.10
2019-02-07T20:10:38.954Z,-0.20
2019-02-07T20:13:07.939Z,-0.30
2019-02-07T20:15:39.106Z,-0.50
2019-02-07T20:18:08.882Z,-0.60
2019-02-07T20:20:37.495Z,-0.70
2019-02-07T20:23:06.261Z,-0.90
2019-02-07T20:25:34.773Z,-1.00
2019-02-07T20:28:03.523Z,-1.10
2019-02-07T20:30:43.445Z,-1.30
2019-02-07T20:33:16.967Z,-1.50
2019-02-07T20:35:45.655Z,-1.50
2019-02-07T20:38:14.333Z,-1.60
2019-02-07T20:40:43.110Z,-1.40
2019-02-07T20:43:11.525Z,-1.40
2019-02-07T20:45:40.196Z,-1.40
2019-02-07T20:48:08.778Z,-1.20
2019-02-07T20:50:37.416Z,-0.90
2019-02-07T20:53:08.079Z,-0.20
2019-02-07T20:55:36.650Z,0.60
2019-02-07T20:58:05.550Z,0.80
2019-02-07T21:00:36.285Z,0.60
2019-02-07T21:03:05.363Z,0.70
2019-02-07T21:05:35.468Z,0.70
2019-02-07T21:08:04.179Z,0.70
2019-02-07T21:10:37.702Z,0.50
2019-02-07T21:13:06.911Z,0.90
2019-02-07T21:15:35.818Z,0.80
2019-02-07T21:18:05.099Z,0.80
2019-02-07T21:20:33.879Z,0.90
2019-02-07T21:23:02.638Z,0.90
2019-02-07T21:25:34.411Z,0.80
2019-02-07T21:28:03.045Z,0.70
2019-02-07T21:30:32.643Z,0.20
2019-02-07T21:33:01.110Z,-0.50
2019-02-07T21:35:29.864Z,-1.00
2019-02-07T21:37:58.371Z,-1.30
2019-02-07T21:40:28.908Z,-1.50
2019-02-07T21:42:58.650Z,-1.50
2019-02-07T21:45:27.163Z,-1.80
2019-02-07T21:47:56.203Z,-1.80
2019-02-07T21:50:26.773Z,-1.80
2019-02-07T21:52:55.327Z,-1.90
2019-02-07T21:55:26.085Z,-1.90
2019-02-07T21:57:54.670Z,-2.00
2019-02-07T22:00:25.992Z,-2.10
2019-02-07T22:02:55.427Z,-2.10
2019-02-07T22:05:24.455Z,-2.20
2019-02-07T22:07:54.428Z,-2.40
2019-02-07T22:10:23.266Z,-2.50
2019-02-07T22:12:51.808Z,-2.60
2019-02-07T22:15:25.727Z,-2.60
2019-02-07T22:17:54.320Z,-2.70
2019-02-07T22:20:27.494Z,-2.70
2019-02-07T22:22:56.879Z,-2.70
2019-02-07T22:25:25.457Z,-2.90
2019-02-07T22:27:53.847Z,-2.80
2019-02-07T22:30:34.749Z,-2.80
2019-02-07T22:33:03.798Z,-2.80
2019-02-07T22:35:32.482Z,-2.90
2019-02-07T22:38:01.393Z,-3.00
2019-02-07T22:40:30.467Z,-3.00
2019-02-07T22:43:00.417Z,-3.10
2019-02-07T22:45:30.692Z,-3.00
2019-02-07T22:47:59.274Z,-3.00
2019-02-07T22:50:30.286Z,-3.00
2019-02-07T22:53:00.564Z,-3.00
2019-02-07T22:55:29.284Z,-3.10
2019-02-07T22:57:57.822Z,-3.10
2019-02-07T23:00:34.490Z,-3.00
2019-02-07T23:03:05.317Z,-3.00
2019-02-07T23:05:33.850Z,-3.10
2019-02-07T23:08:02.996Z,-3.10
2019-02-07T23:10:32.367Z,-3.10
2019-02-07T23:13:01.277Z,-3.10
2019-02-07T23:15:29.734Z,-3.10
2019-02-07T23:17:58.308Z,-3.10
2019-02-07T23:20:26.860Z,-3.10
2019-02-07T23:22:55.799Z,-3.20
2019-02-07T23:25:24.266Z,-3.20
2019-02-07T23:27:52.671Z,-3.30
2019-02-07T23:30:21.180Z,-3.30
2019-02-07T23:32:49.583Z,-3.30
2019-02-07T23:35:17.974Z,-3.30
2019-02-07T23:37:46.420Z,-3.30
2019-02-07T23:40:20.896Z,-3.30
2019-02-07T23:42:49.571Z,-3.40
2019-02-07T23:45:20.905Z,-3.40
2019-02-07T23:47:49.303Z,-3.40
2019-02-07T23:50:17.769Z,-3.40
2019-02-07T23:52:46.288Z,-3.40
2019-02-07T23:55:15.535Z,-3.30
2019-02-07T23:57:43.923Z,-3.30
